Overseas Long Beach — WAAT — position and weather

sailwx.info

Track history (hours):
 
Tides and Currents Weather Stations Pressure Air Temp Water Temp Dewpoint Dewpoint Depression Visibility Wind Speed Wind Dir Waves Ship Positions

Overseas Long Beach

Owner: ASC Leasing II, Inc., Philadelphia, PA. More information available from US FCC via Universal Licensing System and Coast Guard Vessel Documentation Center.

Last reported at 2016-Aug-29 16:17 UTC. Time now 2016-Aug-30 10:58 UTC.
Position N 33°37' W 076°26'.

Length 181 m; draft 9 m.

Type: Tanker. MMSI: 367703000.

Date/timePositionNaut miles runAvg speedWind from/ knotsBaromVisibWave heightAir tempDewpointWater temp
2016-Aug-29 16:17N 33°37' W 076°26'3317.1
2016-Aug-29 14:21N 33°13' W 076°52'  
2016-Aug-27 08:33N 26°24' W 079°42'1413.9
2016-Aug-27 07:33N 26°13' W 079°50'1414.3
2016-Aug-27 06:33N 26°05' W 080°04'3 1.5
2016-Aug-27 04:29N 26°06' W 080°07'0 0.0
2016-Aug-27 03:32N 26°06' W 080°07'0 0.0
2016-Aug-27 02:29N 26°06' W 080°07'0 0.0
2016-Aug-27 01:29N 26°06' W 080°07'0 0.0
2016-Aug-27 00:32N 26°06' W 080°07'0 0.0
2016-Aug-26 23:32N 26°06' W 080°07'0 0.0
2016-Aug-26 22:32N 26°06' W 080°07'0 0.0
2016-Aug-26 21:32N 26°06' W 080°07'0 0.0
2016-Aug-26 20:32N 26°06' W 080°07'0 0.0
2016-Aug-26 19:23N 26°06' W 080°07'0 0.0
2016-Aug-26 18:26N 26°06' W 080°07'0 0.0
2016-Aug-26 17:26N 26°06' W 080°07'0 0.0
2016-Aug-26 16:26N 26°06' W 080°07'0 0.0
2016-Aug-26 15:29N 26°06' W 080°07'0 0.0
2016-Aug-26 14:29N 26°06' W 080°07'0 0.0
2016-Aug-26 13:29N 26°06' W 080°07'0 0.0
2016-Aug-26 12:32N 26°06' W 080°07'0 0.0
2016-Aug-26 11:32N 26°06' W 080°07'0 0.0
2016-Aug-26 10:32N 26°06' W 080°07'0 0.0
2016-Aug-26 09:32N 26°06' W 080°07'0 0.0
2016-Aug-26 08:32N 26°06' W 080°07'0 0.0
2016-Aug-26 07:32N 26°06' W 080°07'0 0.0
2016-Aug-26 06:32N 26°06' W 080°07'0 0.0
2016-Aug-26 04:26N 26°06' W 080°07'0 0.0
2016-Aug-26 03:26N 26°06' W 080°07'0 0.0
2016-Aug-26 02:26N 26°06' W 080°07'0 0.0
2016-Aug-26 01:29N 26°06' W 080°07'0 0.0
2016-Aug-26 00:29N 26°06' W 080°07'0 0.0
2016-Aug-25 23:29N 26°06' W 080°07'0 0.2
2016-Aug-25 22:33N 26°06' W 080°07'7 6.8
2016-Aug-25 21:33N 26°06' W 079°59'3 3.3
2016-Aug-25 20:33N 26°03' W 079°58'1 1.4
2016-Aug-25 19:33N 26°01' W 079°57'2 1.8
2016-Aug-25 18:33N 25°59' W 079°57'2 1.7
2016-Aug-25 17:33N 25°58' W 079°56'2 2.4
2016-Aug-25 16:33N 25°55' W 079°56'2 2.2
2016-Aug-25 15:33N 25°53' W 079°57'3 2.9
2016-Aug-25 14:33N 25°56' W 079°58'6 6.1
2016-Aug-25 13:33N 26°02' W 079°58'9 9.4
2016-Aug-25 12:33N 26°12' W 079°58'1110.9
2016-Aug-25 11:33N 26°22' W 079°58'1212.4
2016-Aug-25 10:33N 26°35' W 079°58'1211.5
2016-Aug-25 09:33N 26°46' W 079°57'1111.0
2016-Aug-25 08:33N 26°57' W 079°57'1110.6
2016-Aug-25 07:32N 27°08' W 079°58'  
2016-Aug-22 02:17N 30°44' W 079°34'65 4.3
2016-Aug-21 11:16N 31°40' W 078°55'  
Track history (hours):
 
Tides and Currents Weather Stations Pressure Air Temp Water Temp Dewpoint Dewpoint Depression Visibility Wind Speed Wind Dir Waves Ship Positions

Overseas Long Beach

Owner: ASC Leasing II, Inc., Philadelphia, PA. More information available from US FCC via Universal Licensing System and Coast Guard Vessel Documentation Center.

Last reported at 2016-Aug-29 16:17 UTC. Time now 2016-Aug-30 10:58 UTC.
Position N 33°37' W 076°26'.

Length 181 m; draft 9 m.

Type: Tanker. MMSI: 367703000.

Date/timePositionNaut miles runAvg speedWind from/ knotsBaromVisibWave heightAir tempDewpointWater temp
2016-Aug-29 16:17N 33°37' W 076°26'3317.1
2016-Aug-29 14:21N 33°13' W 076°52'  
2016-Aug-27 08:33N 26°24' W 079°42'1413.9
2016-Aug-27 07:33N 26°13' W 079°50'1414.3
2016-Aug-27 06:33N 26°05' W 080°04'3 1.5
2016-Aug-27 04:29N 26°06' W 080°07'0 0.0
2016-Aug-27 03:32N 26°06' W 080°07'0 0.0
2016-Aug-27 02:29N 26°06' W 080°07'0 0.0
2016-Aug-27 01:29N 26°06' W 080°07'0 0.0
2016-Aug-27 00:32N 26°06' W 080°07'0 0.0
2016-Aug-26 23:32N 26°06' W 080°07'0 0.0
2016-Aug-26 22:32N 26°06' W 080°07'0 0.0
2016-Aug-26 21:32N 26°06' W 080°07'0 0.0
2016-Aug-26 20:32N 26°06' W 080°07'0 0.0
2016-Aug-26 19:23N 26°06' W 080°07'0 0.0
2016-Aug-26 18:26N 26°06' W 080°07'0 0.0
2016-Aug-26 17:26N 26°06' W 080°07'0 0.0
2016-Aug-26 16:26N 26°06' W 080°07'0 0.0
2016-Aug-26 15:29N 26°06' W 080°07'0 0.0
2016-Aug-26 14:29N 26°06' W 080°07'0 0.0
2016-Aug-26 13:29N 26°06' W 080°07'0 0.0
2016-Aug-26 12:32N 26°06' W 080°07'0 0.0
2016-Aug-26 11:32N 26°06' W 080°07'0 0.0
2016-Aug-26 10:32N 26°06' W 080°07'0 0.0
2016-Aug-26 09:32N 26°06' W 080°07'0 0.0
2016-Aug-26 08:32N 26°06' W 080°07'0 0.0
2016-Aug-26 07:32N 26°06' W 080°07'0 0.0
2016-Aug-26 06:32N 26°06' W 080°07'0 0.0
2016-Aug-26 04:26N 26°06' W 080°07'0 0.0
2016-Aug-26 03:26N 26°06' W 080°07'0 0.0
2016-Aug-26 02:26N 26°06' W 080°07'0 0.0
2016-Aug-26 01:29N 26°06' W 080°07'0 0.0
2016-Aug-26 00:29N 26°06' W 080°07'0 0.0
2016-Aug-25 23:29N 26°06' W 080°07'0 0.2
2016-Aug-25 22:33N 26°06' W 080°07'7 6.8
2016-Aug-25 21:33N 26°06' W 079°59'3 3.3
2016-Aug-25 20:33N 26°03' W 079°58'1 1.4
2016-Aug-25 19:33N 26°01' W 079°57'2 1.8
2016-Aug-25 18:33N 25°59' W 079°57'2 1.7
2016-Aug-25 17:33N 25°58' W 079°56'2 2.4
2016-Aug-25 16:33N 25°55' W 079°56'2 2.2
2016-Aug-25 15:33N 25°53' W 079°57'3 2.9
2016-Aug-25 14:33N 25°56' W 079°58'6 6.1
2016-Aug-25 13:33N 26°02' W 079°58'9 9.4
2016-Aug-25 12:33N 26°12' W 079°58'1110.9
2016-Aug-25 11:33N 26°22' W 079°58'1212.4
2016-Aug-25 10:33N 26°35' W 079°58'1211.5
2016-Aug-25 09:33N 26°46' W 079°57'1111.0
2016-Aug-25 08:33N 26°57' W 079°57'1110.6
2016-Aug-25 07:32N 27°08' W 079°58'  
2016-Aug-22 02:17N 30°44' W 079°34'65 4.3
2016-Aug-21 11:16N 31°40' W 078°55'  

Dump ship's entire track history